sensor_id;sensor_type;location;lat;lon;timestamp;P1;durP1;ratioP1;P2;durP2;ratioP2
77524;SDS011;66638;50.050;21.124;2023-05-20T00:00:46;25.80;;;15.40;;
77524;SDS011;66638;50.050;21.124;2023-05-20T00:03:36;25.10;;;15.80;;
77524;SDS011;66638;50.050;21.124;2023-05-20T00:06:23;22.50;;;14.90;;
77524;SDS011;66638;50.050;21.124;2023-05-20T00:09:10;24.40;;;14.70;;
77524;SDS011;66638;50.050;21.124;2023-05-20T00:11:58;23.30;;;14.60;;
77524;SDS011;66638;50.050;21.124;2023-05-20T00:14:45;24.00;;;15.40;;
77524;SDS011;66638;50.050;21.124;2023-05-20T00:17:32;23.20;;;14.50;;
77524;SDS011;66638;50.050;21.124;2023-05-20T00:20:19;26.30;;;15.00;;
77524;SDS011;66638;50.050;21.124;2023-05-20T00:23:06;21.70;;;13.60;;
77524;SDS011;66638;50.050;21.124;2023-05-20T00:25:54;21.80;;;14.90;;
77524;SDS011;66638;50.050;21.124;2023-05-20T00:28:42;27.80;;;15.30;;
77524;SDS011;66638;50.050;21.124;2023-05-20T00:31:29;23.50;;;13.80;;
77524;SDS011;66638;50.050;21.124;2023-05-20T00:34:16;24.10;;;15.00;;
77524;SDS011;66638;50.050;21.124;2023-05-20T00:37:03;24.60;;;15.40;;
77524;SDS011;66638;50.050;21.124;2023-05-20T00:39:51;26.40;;;15.60;;
77524;SDS011;66638;50.050;21.124;2023-05-20T00:42:38;27.90;;;15.80;;
77524;SDS011;66638;50.050;21.124;2023-05-20T00:45:25;29.00;;;17.20;;
77524;SDS011;66638;50.050;21.124;2023-05-20T00:48:13;26.50;;;16.00;;
77524;SDS011;66638;50.050;21.124;2023-05-20T00:51:01;31.90;;;17.20;;
77524;SDS011;66638;50.050;21.124;2023-05-20T00:53:50;27.90;;;15.90;;
77524;SDS011;66638;50.050;21.124;2023-05-20T00:56:37;28.20;;;16.20;;
77524;SDS011;66638;50.050;21.124;2023-05-20T00:59:25;31.20;;;17.70;;
77524;SDS011;66638;50.050;21.124;2023-05-20T01:02:13;28.70;;;17.00;;
77524;SDS011;66638;50.050;21.124;2023-05-20T01:05:00;30.60;;;16.70;;
77524;SDS011;66638;50.050;21.124;2023-05-20T01:07:47;29.20;;;15.70;;
77524;SDS011;66638;50.050;21.124;2023-05-20T01:10:35;34.90;;;15.90;;
77524;SDS011;66638;50.050;21.124;2023-05-20T01:13:28;33.70;;;16.80;;
77524;SDS011;66638;50.050;21.124;2023-05-20T01:16:20;32.00;;;16.30;;
77524;SDS011;66638;50.050;21.124;2023-05-20T01:19:16;33.20;;;17.30;;
77524;SDS011;66638;50.050;21.124;2023-05-20T01:22:09;34.00;;;17.80;;
77524;SDS011;66638;50.050;21.124;2023-05-20T01:24:59;35.00;;;18.40;;
77524;SDS011;66638;50.050;21.124;2023-05-20T01:27:48;29.90;;;16.80;;
77524;SDS011;66638;50.050;21.124;2023-05-20T01:30:37;31.90;;;17.70;;
77524;SDS011;66638;50.050;21.124;2023-05-20T01:33:28;32.50;;;17.70;;
77524;SDS011;66638;50.050;21.124;2023-05-20T01:36:17;35.50;;;17.10;;
77524;SDS011;66638;50.050;21.124;2023-05-20T01:39:05;35.90;;;18.00;;
77524;SDS011;66638;50.050;21.124;2023-05-20T01:41:52;33.80;;;19.00;;
77524;SDS011;66638;50.050;21.124;2023-05-20T01:44:40;36.80;;;17.90;;
77524;SDS011;66638;50.050;21.124;2023-05-20T01:47:27;30.40;;;17.90;;
77524;SDS011;66638;50.050;21.124;2023-05-20T01:50:15;35.40;;;17.90;;
77524;SDS011;66638;50.050;21.124;2023-05-20T01:53:02;32.30;;;16.20;;
77524;SDS011;66638;50.050;21.124;2023-05-20T01:55:51;36.80;;;17.60;;
77524;SDS011;66638;50.050;21.124;2023-05-20T01:58:39;34.30;;;17.60;;
77524;SDS011;66638;50.050;21.124;2023-05-20T02:01:26;36.30;;;18.70;;
77524;SDS011;66638;50.050;21.124;2023-05-20T02:04:13;37.00;;;17.70;;
77524;SDS011;66638;50.050;21.124;2023-05-20T02:07:00;35.60;;;17.50;;
77524;SDS011;66638;50.050;21.124;2023-05-20T02:09:47;35.10;;;17.50;;
77524;SDS011;66638;50.050;21.124;2023-05-20T02:12:35;30.80;;;17.30;;
77524;SDS011;66638;50.050;21.124;2023-05-20T02:15:22;35.00;;;19.10;;
77524;SDS011;66638;50.050;21.124;2023-05-20T02:18:10;36.50;;;18.10;;
77524;SDS011;66638;50.050;21.124;2023-05-20T02:21:02;30.60;;;17.10;;
77524;SDS011;66638;50.050;21.124;2023-05-20T02:23:52;35.40;;;17.60;;
77524;SDS011;66638;50.050;21.124;2023-05-20T02:26:39;29.40;;;17.00;;
77524;SDS011;66638;50.050;21.124;2023-05-20T02:29:29;31.30;;;17.30;;
77524;SDS011;66638;50.050;21.124;2023-05-20T02:32:17;31.90;;;17.20;;
77524;SDS011;66638;50.050;21.124;2023-05-20T02:35:06;32.50;;;16.80;;
77524;SDS011;66638;50.050;21.124;2023-05-20T02:37:53;34.90;;;17.10;;
77524;SDS011;66638;50.050;21.124;2023-05-20T02:40:44;32.30;;;17.00;;
77524;SDS011;66638;50.050;21.124;2023-05-20T02:43:32;36.40;;;18.70;;
77524;SDS011;66638;50.050;21.124;2023-05-20T02:46:21;36.70;;;18.90;;
77524;SDS011;66638;50.050;21.124;2023-05-20T02:49:08;34.60;;;18.40;;
77524;SDS011;66638;50.050;21.124;2023-05-20T02:51:55;35.00;;;18.40;;
77524;SDS011;66638;50.050;21.124;2023-05-20T02:54:42;31.50;;;18.00;;
77524;SDS011;66638;50.050;21.124;2023-05-20T02:57:30;30.80;;;17.80;;
77524;SDS011;66638;50.050;21.124;2023-05-20T03:00:20;33.40;;;17.80;;
77524;SDS011;66638;50.050;21.124;2023-05-20T03:03:09;37.70;;;18.50;;
77524;SDS011;66638;50.050;21.124;2023-05-20T03:05:57;35.10;;;18.90;;
77524;SDS011;66638;50.050;21.124;2023-05-20T03:08:44;34.60;;;18.30;;
77524;SDS011;66638;50.050;21.124;2023-05-20T03:11:31;35.00;;;19.50;;
77524;SDS011;66638;50.050;21.124;2023-05-20T03:14:18;34.70;;;18.60;;
77524;SDS011;66638;50.050;21.124;2023-05-20T03:17:07;39.40;;;20.10;;
77524;SDS011;66638;50.050;21.124;2023-05-20T03:19:55;36.90;;;18.40;;
77524;SDS011;66638;50.050;21.124;2023-05-20T03:22:43;34.40;;;19.10;;
77524;SDS011;66638;50.050;21.124;2023-05-20T03:25:30;35.20;;;18.80;;
77524;SDS011;66638;50.050;21.124;2023-05-20T03:28:18;34.90;;;19.60;;
77524;SDS011;66638;50.050;21.124;2023-05-20T03:31:05;31.70;;;17.50;;
77524;SDS011;66638;50.050;21.124;2023-05-20T03:33:52;33.20;;;18.00;;
77524;SDS011;66638;50.050;21.124;2023-05-20T03:36:40;33.70;;;18.40;;
77524;SDS011;66638;50.050;21.124;2023-05-20T03:39:27;28.00;;;17.80;;
77524;SDS011;66638;50.050;21.124;2023-05-20T03:42:15;31.80;;;17.90;;
77524;SDS011;66638;50.050;21.124;2023-05-20T03:45:03;31.20;;;19.90;;
77524;SDS011;66638;50.050;21.124;2023-05-20T03:47:55;33.20;;;18.10;;
77524;SDS011;66638;50.050;21.124;2023-05-20T03:50:42;27.80;;;16.90;;
77524;SDS011;66638;50.050;21.124;2023-05-20T03:53:31;31.60;;;18.10;;
77524;SDS011;66638;50.050;21.124;2023-05-20T03:56:18;29.70;;;17.90;;
77524;SDS011;66638;50.050;21.124;2023-05-20T03:59:06;29.70;;;17.30;;
77524;SDS011;66638;50.050;21.124;2023-05-20T04:01:54;34.80;;;19.00;;
77524;SDS011;66638;50.050;21.124;2023-05-20T04:04:42;31.20;;;17.30;;
77524;SDS011;66638;50.050;21.124;2023-05-20T04:07:30;33.40;;;18.70;;
77524;SDS011;66638;50.050;21.124;2023-05-20T04:10:18;29.30;;;18.60;;
77524;SDS011;66638;50.050;21.124;2023-05-20T04:13:06;28.80;;;18.00;;
77524;SDS011;66638;50.050;21.124;2023-05-20T04:15:54;33.30;;;19.70;;
77524;SDS011;66638;50.050;21.124;2023-05-20T04:18:41;31.10;;;16.60;;
77524;SDS011;66638;50.050;21.124;2023-05-20T04:21:32;30.00;;;17.90;;
77524;SDS011;66638;50.050;21.124;2023-05-20T04:24:19;34.00;;;17.90;;
77524;SDS011;66638;50.050;21.124;2023-05-20T04:27:11;28.40;;;18.60;;
77524;SDS011;66638;50.050;21.124;2023-05-20T04:29:58;27.60;;;17.80;;
77524;SDS011;66638;50.050;21.124;2023-05-20T04:32:49;31.20;;;19.20;;
77524;SDS011;66638;50.050;21.124;2023-05-20T04:35:36;32.60;;;19.50;;
77524;SDS011;66638;50.050;21.124;2023-05-20T04:38:28;30.40;;;19.20;;
77524;SDS011;66638;50.050;21.124;2023-05-20T04:41:16;34.60;;;20.50;;
77524;SDS011;66638;50.050;21.124;2023-05-20T04:44:05;30.20;;;18.70;;
77524;SDS011;66638;50.050;21.124;2023-05-20T04:46:53;33.40;;;19.00;;
77524;SDS011;66638;50.050;21.124;2023-05-20T04:49:40;32.80;;;19.70;;
77524;SDS011;66638;50.050;21.124;2023-05-20T04:52:28;31.70;;;19.80;;
77524;SDS011;66638;50.050;21.124;2023-05-20T04:55:15;30.30;;;18.30;;
77524;SDS011;66638;50.050;21.124;2023-05-20T04:58:04;33.20;;;19.40;;
77524;SDS011;66638;50.050;21.124;2023-05-20T05:00:51;25.80;;;16.10;;
77524;SDS011;66638;50.050;21.124;2023-05-20T05:03:41;28.40;;;18.90;;
77524;SDS011;66638;50.050;21.124;2023-05-20T05:06:28;29.80;;;19.90;;
77524;SDS011;66638;50.050;21.124;2023-05-20T05:09:18;27.90;;;18.00;;
77524;SDS011;66638;50.050;21.124;2023-05-20T05:12:06;30.40;;;17.60;;
77524;SDS011;66638;50.050;21.124;2023-05-20T05:14:55;28.30;;;17.80;;
77524;SDS011;66638;50.050;21.124;2023-05-20T05:17:44;28.10;;;17.60;;
77524;SDS011;66638;50.050;21.124;2023-05-20T05:20:32;26.90;;;18.00;;
77524;SDS011;66638;50.050;21.124;2023-05-20T05:23:19;29.10;;;18.80;;
77524;SDS011;66638;50.050;21.124;2023-05-20T05:26:06;28.50;;;19.10;;
77524;SDS011;66638;50.050;21.124;2023-05-20T05:28:54;27.20;;;17.20;;
77524;SDS011;66638;50.050;21.124;2023-05-20T05:31:41;26.80;;;17.40;;
77524;SDS011;66638;50.050;21.124;2023-05-20T05:34:28;30.00;;;18.90;;
77524;SDS011;66638;50.050;21.124;2023-05-20T05:37:16;26.90;;;17.40;;
77524;SDS011;66638;50.050;21.124;2023-05-20T05:40:03;27.70;;;16.40;;
77524;SDS011;66638;50.050;21.124;2023-05-20T05:42:51;28.20;;;18.50;;
77524;SDS011;66638;50.050;21.124;2023-05-20T05:45:39;26.40;;;16.20;;
77524;SDS011;66638;50.050;21.124;2023-05-20T05:48:28;25.10;;;17.10;;
77524;SDS011;66638;50.050;21.124;2023-05-20T05:51:16;24.70;;;15.00;;
77524;SDS011;66638;50.050;21.124;2023-05-20T05:54:03;24.30;;;15.90;;
77524;SDS011;66638;50.050;21.124;2023-05-20T05:56:54;26.10;;;14.70;;
77524;SDS011;66638;50.050;21.124;2023-05-20T05:59:45;27.70;;;16.30;;
77524;SDS011;66638;50.050;21.124;2023-05-20T06:02:33;27.80;;;17.80;;
77524;SDS011;66638;50.050;21.124;2023-05-20T06:05:22;23.00;;;15.20;;
77524;SDS011;66638;50.050;21.124;2023-05-20T06:08:15;22.70;;;15.90;;
77524;SDS011;66638;50.050;21.124;2023-05-20T06:11:04;23.80;;;14.70;;
77524;SDS011;66638;50.050;21.124;2023-05-20T06:13:51;23.80;;;15.60;;
77524;SDS011;66638;50.050;21.124;2023-05-20T06:16:38;23.00;;;14.80;;
77524;SDS011;66638;50.050;21.124;2023-05-20T06:19:30;26.00;;;16.40;;
77524;SDS011;66638;50.050;21.124;2023-05-20T06:22:17;25.60;;;15.40;;
77524;SDS011;66638;50.050;21.124;2023-05-20T06:25:06;26.50;;;15.70;;
77524;SDS011;66638;50.050;21.124;2023-05-20T06:27:56;27.10;;;15.30;;
77524;SDS011;66638;50.050;21.124;2023-05-20T06:30:44;24.80;;;13.60;;
77524;SDS011;66638;50.050;21.124;2023-05-20T06:33:32;23.80;;;13.50;;
77524;SDS011;66638;50.050;21.124;2023-05-20T06:36:27;24.00;;;15.70;;
77524;SDS011;66638;50.050;21.124;2023-05-20T06:39:15;21.90;;;14.30;;
77524;SDS011;66638;50.050;21.124;2023-05-20T06:42:05;20.70;;;14.20;;
77524;SDS011;66638;50.050;21.124;2023-05-20T06:44:58;20.50;;;13.30;;
77524;SDS011;66638;50.050;21.124;2023-05-20T06:47:55;21.30;;;14.70;;
77524;SDS011;66638;50.050;21.124;2023-05-20T06:50:43;25.60;;;14.60;;
77524;SDS011;66638;50.050;21.124;2023-05-20T06:53:31;21.90;;;14.30;;
77524;SDS011;66638;50.050;21.124;2023-05-20T06:56:18;25.20;;;16.10;;
77524;SDS011;66638;50.050;21.124;2023-05-20T06:59:15;18.90;;;11.90;;
77524;SDS011;66638;50.050;21.124;2023-05-20T07:02:03;23.30;;;16.50;;
77524;SDS011;66638;50.050;21.124;2023-05-20T07:04:51;24.10;;;15.70;;
77524;SDS011;66638;50.050;21.124;2023-05-20T07:07:38;22.20;;;15.50;;
77524;SDS011;66638;50.050;21.124;2023-05-20T07:10:26;26.10;;;16.90;;
77524;SDS011;66638;50.050;21.124;2023-05-20T07:13:14;24.30;;;15.40;;
77524;SDS011;66638;50.050;21.124;2023-05-20T07:16:01;20.80;;;12.50;;
77524;SDS011;66638;50.050;21.124;2023-05-20T07:18:54;23.20;;;16.20;;
77524;SDS011;66638;50.050;21.124;2023-05-20T07:21:41;24.40;;;16.40;;
77524;SDS011;66638;50.050;21.124;2023-05-20T07:24:48;16.90;;;9.70;;
77524;SDS011;66638;50.050;21.124;2023-05-20T07:27:36;25.50;;;15.40;;
77524;SDS011;66638;50.050;21.124;2023-05-20T07:30:24;28.90;;;16.30;;
77524;SDS011;66638;50.050;21.124;2023-05-20T07:33:27;22.30;;;14.80;;
77524;SDS011;66638;50.050;21.124;2023-05-20T07:36:15;21.40;;;12.50;;
77524;SDS011;66638;50.050;21.124;2023-05-20T07:39:06;26.60;;;17.20;;
77524;SDS011;66638;50.050;21.124;2023-05-20T07:41:56;24.90;;;17.30;;
77524;SDS011;66638;50.050;21.124;2023-05-20T07:44:44;24.10;;;16.20;;
77524;SDS011;66638;50.050;21.124;2023-05-20T07:47:33;24.90;;;15.60;;
77524;SDS011;66638;50.050;21.124;2023-05-20T07:50:24;22.50;;;13.80;;
77524;SDS011;66638;50.050;21.124;2023-05-20T07:53:12;25.50;;;16.50;;
77524;SDS011;66638;50.050;21.124;2023-05-20T07:55:59;24.80;;;17.40;;
77524;SDS011;66638;50.050;21.124;2023-05-20T07:58:53;24.40;;;17.00;;
77524;SDS011;66638;50.050;21.124;2023-05-20T08:01:43;22.50;;;16.40;;
77524;SDS011;66638;50.050;21.124;2023-05-20T08:04:32;24.20;;;16.30;;
77524;SDS011;66638;50.050;21.124;2023-05-20T08:07:21;24.70;;;17.10;;
77524;SDS011;66638;50.050;21.124;2023-05-20T08:10:12;22.30;;;16.10;;
77524;SDS011;66638;50.050;21.124;2023-05-20T08:12:59;23.50;;;16.20;;
77524;SDS011;66638;50.050;21.124;2023-05-20T08:15:47;24.80;;;16.00;;
77524;SDS011;66638;50.050;21.124;2023-05-20T08:18:34;22.80;;;15.50;;
77524;SDS011;66638;50.050;21.124;2023-05-20T08:21:23;24.40;;;17.00;;
77524;SDS011;66638;50.050;21.124;2023-05-20T08:24:10;26.20;;;17.90;;
77524;SDS011;66638;50.050;21.124;2023-05-20T08:26:59;22.40;;;16.90;;
77524;SDS011;66638;50.050;21.124;2023-05-20T08:29:47;25.00;;;16.80;;
77524;SDS011;66638;50.050;21.124;2023-05-20T08:32:35;22.90;;;15.70;;
77524;SDS011;66638;50.050;21.124;2023-05-20T08:35:23;23.30;;;16.10;;
77524;SDS011;66638;50.050;21.124;2023-05-20T08:38:10;24.50;;;16.00;;
77524;SDS011;66638;50.050;21.124;2023-05-20T08:40:58;22.40;;;15.80;;
77524;SDS011;66638;50.050;21.124;2023-05-20T08:43:45;21.80;;;14.30;;
77524;SDS011;66638;50.050;21.124;2023-05-20T08:46:33;24.00;;;15.40;;
77524;SDS011;66638;50.050;21.124;2023-05-20T08:49:22;19.70;;;14.80;;
77524;SDS011;66638;50.050;21.124;2023-05-20T08:52:09;22.20;;;13.40;;
77524;SDS011;66638;50.050;21.124;2023-05-20T08:54:57;22.90;;;15.50;;
77524;SDS011;66638;50.050;21.124;2023-05-20T08:57:45;22.10;;;16.70;;
77524;SDS011;66638;50.050;21.124;2023-05-20T09:00:32;26.00;;;15.00;;
77524;SDS011;66638;50.050;21.124;2023-05-20T09:03:20;23.80;;;17.70;;
77524;SDS011;66638;50.050;21.124;2023-05-20T09:06:09;23.10;;;15.00;;
77524;SDS011;66638;50.050;21.124;2023-05-20T09:09:01;22.50;;;15.40;;
77524;SDS011;66638;50.050;21.124;2023-05-20T09:11:49;22.80;;;16.00;;
77524;SDS011;66638;50.050;21.124;2023-05-20T09:14:37;22.80;;;14.90;;
77524;SDS011;66638;50.050;21.124;2023-05-20T09:17:24;25.80;;;16.00;;
77524;SDS011;66638;50.050;21.124;2023-05-20T09:20:11;23.10;;;14.50;;
77524;SDS011;66638;50.050;21.124;2023-05-20T09:23:00;22.60;;;15.80;;
77524;SDS011;66638;50.050;21.124;2023-05-20T09:25:50;21.50;;;14.10;;
77524;SDS011;66638;50.050;21.124;2023-05-20T09:28:38;20.20;;;14.30;;
77524;SDS011;66638;50.050;21.124;2023-05-20T09:31:27;24.90;;;16.00;;
77524;SDS011;66638;50.050;21.124;2023-05-20T09:34:15;20.60;;;14.00;;
77524;SDS011;66638;50.050;21.124;2023-05-20T09:37:04;21.20;;;14.60;;
77524;SDS011;66638;50.050;21.124;2023-05-20T09:40:00;24.10;;;15.30;;
77524;SDS011;66638;50.050;21.124;2023-05-20T09:42:53;21.10;;;15.10;;
77524;SDS011;66638;50.050;21.124;2023-05-20T09:45:43;20.40;;;15.80;;
77524;SDS011;66638;50.050;21.124;2023-05-20T09:48:30;20.30;;;15.30;;
77524;SDS011;66638;50.050;21.124;2023-05-20T09:51:18;22.70;;;15.00;;
77524;SDS011;66638;50.050;21.124;2023-05-20T09:54:05;19.60;;;14.60;;
77524;SDS011;66638;50.050;21.124;2023-05-20T09:56:55;19.10;;;15.60;;
77524;SDS011;66638;50.050;21.124;2023-05-20T09:59:44;22.70;;;16.80;;
77524;SDS011;66638;50.050;21.124;2023-05-20T10:02:32;22.30;;;16.10;;
77524;SDS011;66638;50.050;21.124;2023-05-20T10:05:20;19.60;;;13.70;;
77524;SDS011;66638;50.050;21.124;2023-05-20T10:12:06;20.10;;;14.90;;
77524;SDS011;66638;50.050;21.124;2023-05-20T10:15:15;21.50;;;16.10;;
77524;SDS011;66638;50.050;21.124;2023-05-20T10:18:13;17.50;;;14.70;;
77524;SDS011;66638;50.050;21.124;2023-05-20T10:21:15;20.20;;;15.80;;
77524;SDS011;66638;50.050;21.124;2023-05-20T10:24:06;21.00;;;14.20;;
77524;SDS011;66638;50.050;21.124;2023-05-20T10:26:54;18.70;;;14.90;;
77524;SDS011;66638;50.050;21.124;2023-05-20T10:29:44;21.30;;;16.00;;
77524;SDS011;66638;50.050;21.124;2023-05-20T10:32:36;18.60;;;15.50;;
77524;SDS011;66638;50.050;21.124;2023-05-20T10:35:35;18.10;;;14.80;;
77524;SDS011;66638;50.050;21.124;2023-05-20T10:38:33;17.50;;;14.40;;
77524;SDS011;66638;50.050;21.124;2023-05-20T10:41:22;15.80;;;13.40;;
77524;SDS011;66638;50.050;21.124;2023-05-20T10:44:10;19.90;;;15.90;;
77524;SDS011;66638;50.050;21.124;2023-05-20T10:47:01;17.90;;;14.30;;
77524;SDS011;66638;50.050;21.124;2023-05-20T10:49:49;18.10;;;14.30;;
77524;SDS011;66638;50.050;21.124;2023-05-20T10:52:36;17.40;;;14.60;;
77524;SDS011;66638;50.050;21.124;2023-05-20T10:55:23;19.00;;;15.50;;
77524;SDS011;66638;50.050;21.124;2023-05-20T10:58:11;16.40;;;14.60;;
77524;SDS011;66638;50.050;21.124;2023-05-20T11:00:58;15.90;;;13.60;;
77524;SDS011;66638;50.050;21.124;2023-05-20T11:03:47;16.20;;;13.30;;
77524;SDS011;66638;50.050;21.124;2023-05-20T11:06:35;17.80;;;14.00;;
77524;SDS011;66638;50.050;21.124;2023-05-20T11:09:23;19.80;;;14.50;;
77524;SDS011;66638;50.050;21.124;2023-05-20T11:12:11;19.60;;;14.10;;
77524;SDS011;66638;50.050;21.124;2023-05-20T11:14:58;15.40;;;13.60;;
77524;SDS011;66638;50.050;21.124;2023-05-20T11:17:56;21.50;;;14.50;;
77524;SDS011;66638;50.050;21.124;2023-05-20T11:20:46;18.80;;;14.50;;
77524;SDS011;66638;50.050;21.124;2023-05-20T11:23:33;15.20;;;12.60;;
77524;SDS011;66638;50.050;21.124;2023-05-20T11:26:20;16.30;;;13.20;;
77524;SDS011;66638;50.050;21.124;2023-05-20T11:29:08;16.60;;;12.60;;
77524;SDS011;66638;50.050;21.124;2023-05-20T11:31:56;17.40;;;15.20;;
77524;SDS011;66638;50.050;21.124;2023-05-20T11:34:44;19.90;;;14.30;;
77524;SDS011;66638;50.050;21.124;2023-05-20T11:37:31;17.00;;;12.60;;
77524;SDS011;66638;50.050;21.124;2023-05-20T11:40:18;16.40;;;12.70;;
77524;SDS011;66638;50.050;21.124;2023-05-20T11:43:10;21.30;;;13.90;;
77524;SDS011;66638;50.050;21.124;2023-05-20T11:45:58;16.40;;;14.40;;
77524;SDS011;66638;50.050;21.124;2023-05-20T11:48:52;16.70;;;12.10;;
77524;SDS011;66638;50.050;21.124;2023-05-20T11:51:41;17.40;;;13.10;;
77524;SDS011;66638;50.050;21.124;2023-05-20T11:54:29;20.50;;;14.50;;
77524;SDS011;66638;50.050;21.124;2023-05-20T11:57:22;20.60;;;12.80;;
77524;SDS011;66638;50.050;21.124;2023-05-20T12:00:10;18.10;;;13.70;;
77524;SDS011;66638;50.050;21.124;2023-05-20T12:02:57;16.10;;;11.90;;
77524;SDS011;66638;50.050;21.124;2023-05-20T12:05:44;15.40;;;12.70;;
77524;SDS011;66638;50.050;21.124;2023-05-20T12:08:33;16.20;;;12.80;;
77524;SDS011;66638;50.050;21.124;2023-05-20T12:11:21;14.00;;;12.10;;
77524;SDS011;66638;50.050;21.124;2023-05-20T12:14:08;14.00;;;11.60;;
77524;SDS011;66638;50.050;21.124;2023-05-20T12:16:56;16.50;;;13.00;;
77524;SDS011;66638;50.050;21.124;2023-05-20T12:19:43;14.90;;;12.20;;
77524;SDS011;66638;50.050;21.124;2023-05-20T12:22:31;13.90;;;9.90;;
77524;SDS011;66638;50.050;21.124;2023-05-20T12:25:19;13.40;;;11.70;;
77524;SDS011;66638;50.050;21.124;2023-05-20T12:28:07;13.00;;;11.20;;
77524;SDS011;66638;50.050;21.124;2023-05-20T12:30:55;15.40;;;11.10;;
77524;SDS011;66638;50.050;21.124;2023-05-20T12:33:42;13.40;;;9.80;;
77524;SDS011;66638;50.050;21.124;2023-05-20T12:36:29;14.20;;;11.20;;
77524;SDS011;66638;50.050;21.124;2023-05-20T12:39:17;14.90;;;11.50;;
77524;SDS011;66638;50.050;21.124;2023-05-20T12:42:05;11.20;;;9.20;;
77524;SDS011;66638;50.050;21.124;2023-05-20T12:44:52;13.60;;;10.20;;
77524;SDS011;66638;50.050;21.124;2023-05-20T12:47:42;10.40;;;8.50;;
77524;SDS011;66638;50.050;21.124;2023-05-20T12:50:30;12.20;;;8.30;;
77524;SDS011;66638;50.050;21.124;2023-05-20T12:53:18;12.60;;;10.10;;
77524;SDS011;66638;50.050;21.124;2023-05-20T12:56:05;13.20;;;10.70;;
77524;SDS011;66638;50.050;21.124;2023-05-20T12:58:53;12.80;;;10.00;;
77524;SDS011;66638;50.050;21.124;2023-05-20T13:01:40;13.90;;;9.90;;
77524;SDS011;66638;50.050;21.124;2023-05-20T13:04:27;12.20;;;9.60;;
77524;SDS011;66638;50.050;21.124;2023-05-20T13:07:14;12.40;;;9.20;;
77524;SDS011;66638;50.050;21.124;2023-05-20T13:10:02;13.00;;;9.50;;
77524;SDS011;66638;50.050;21.124;2023-05-20T13:12:50;12.00;;;8.90;;
77524;SDS011;66638;50.050;21.124;2023-05-20T13:15:37;10.40;;;8.40;;
77524;SDS011;66638;50.050;21.124;2023-05-20T13:18:24;8.20;;;6.20;;
77524;SDS011;66638;50.050;21.124;2023-05-20T13:21:12;11.10;;;9.30;;
77524;SDS011;66638;50.050;21.124;2023-05-20T13:23:59;11.80;;;8.80;;
77524;SDS011;66638;50.050;21.124;2023-05-20T13:26:47;10.80;;;7.80;;
77524;SDS011;66638;50.050;21.124;2023-05-20T13:29:35;11.00;;;8.70;;
77524;SDS011;66638;50.050;21.124;2023-05-20T13:32:21;12.90;;;8.50;;
77524;SDS011;66638;50.050;21.124;2023-05-20T13:35:09;9.60;;;8.10;;
77524;SDS011;66638;50.050;21.124;2023-05-20T13:37:58;11.80;;;9.00;;
77524;SDS011;66638;50.050;21.124;2023-05-20T13:40:46;14.00;;;7.60;;
77524;SDS011;66638;50.050;21.124;2023-05-20T13:43:35;10.50;;;8.30;;
77524;SDS011;66638;50.050;21.124;2023-05-20T13:46:23;13.20;;;8.40;;
77524;SDS011;66638;50.050;21.124;2023-05-20T13:49:10;10.90;;;9.30;;
77524;SDS011;66638;50.050;21.124;2023-05-20T13:51:57;11.00;;;9.00;;
77524;SDS011;66638;50.050;21.124;2023-05-20T13:54:45;9.30;;;8.30;;
77524;SDS011;66638;50.050;21.124;2023-05-20T13:57:34;11.80;;;8.30;;
77524;SDS011;66638;50.050;21.124;2023-05-20T14:00:22;11.50;;;8.70;;
77524;SDS011;66638;50.050;21.124;2023-05-20T14:03:09;10.40;;;8.80;;
77524;SDS011;66638;50.050;21.124;2023-05-20T14:05:57;12.00;;;8.60;;
77524;SDS011;66638;50.050;21.124;2023-05-20T14:08:46;11.50;;;9.00;;
77524;SDS011;66638;50.050;21.124;2023-05-20T14:11:33;11.20;;;8.20;;
77524;SDS011;66638;50.050;21.124;2023-05-20T14:14:21;9.00;;;7.00;;
77524;SDS011;66638;50.050;21.124;2023-05-20T14:17:08;8.70;;;7.80;;
77524;SDS011;66638;50.050;21.124;2023-05-20T14:19:55;9.20;;;7.30;;
77524;SDS011;66638;50.050;21.124;2023-05-20T14:22:43;9.30;;;7.70;;
77524;SDS011;66638;50.050;21.124;2023-05-20T14:25:30;10.60;;;9.20;;
77524;SDS011;66638;50.050;21.124;2023-05-20T14:28:17;11.70;;;9.20;;
77524;SDS011;66638;50.050;21.124;2023-05-20T14:31:08;11.70;;;8.70;;
77524;SDS011;66638;50.050;21.124;2023-05-20T14:33:56;17.10;;;9.30;;
77524;SDS011;66638;50.050;21.124;2023-05-20T14:36:44;11.30;;;8.30;;
77524;SDS011;66638;50.050;21.124;2023-05-20T14:39:31;14.30;;;9.50;;
77524;SDS011;66638;50.050;21.124;2023-05-20T14:42:19;10.40;;;8.20;;
77524;SDS011;66638;50.050;21.124;2023-05-20T14:45:06;12.60;;;9.20;;
77524;SDS011;66638;50.050;21.124;2023-05-20T14:47:54;11.50;;;8.30;;
77524;SDS011;66638;50.050;21.124;2023-05-20T14:50:41;13.10;;;8.60;;
77524;SDS011;66638;50.050;21.124;2023-05-20T14:53:29;14.50;;;9.00;;
77524;SDS011;66638;50.050;21.124;2023-05-20T14:56:16;11.40;;;8.90;;
77524;SDS011;66638;50.050;21.124;2023-05-20T14:59:03;10.20;;;7.30;;
77524;SDS011;66638;50.050;21.124;2023-05-20T15:01:51;9.20;;;7.70;;
77524;SDS011;66638;50.050;21.124;2023-05-20T15:04:38;9.50;;;6.00;;
77524;SDS011;66638;50.050;21.124;2023-05-20T15:07:26;13.00;;;8.40;;
77524;SDS011;66638;50.050;21.124;2023-05-20T15:10:13;13.40;;;9.40;;
77524;SDS011;66638;50.050;21.124;2023-05-20T15:13:01;9.60;;;8.30;;
77524;SDS011;66638;50.050;21.124;2023-05-20T15:15:49;12.40;;;9.10;;
77524;SDS011;66638;50.050;21.124;2023-05-20T15:18:36;9.40;;;7.50;;
77524;SDS011;66638;50.050;21.124;2023-05-20T15:21:24;10.00;;;8.50;;
77524;SDS011;66638;50.050;21.124;2023-05-20T15:24:12;10.10;;;8.00;;
77524;SDS011;66638;50.050;21.124;2023-05-20T15:26:59;14.60;;;7.80;;
77524;SDS011;66638;50.050;21.124;2023-05-20T15:29:50;9.50;;;8.20;;
77524;SDS011;66638;50.050;21.124;2023-05-20T15:32:37;10.70;;;8.90;;
77524;SDS011;66638;50.050;21.124;2023-05-20T15:35:25;10.60;;;8.00;;
77524;SDS011;66638;50.050;21.124;2023-05-20T15:38:13;11.20;;;8.30;;
77524;SDS011;66638;50.050;21.124;2023-05-20T15:41:01;11.30;;;8.80;;
77524;SDS011;66638;50.050;21.124;2023-05-20T15:43:48;9.20;;;8.20;;
77524;SDS011;66638;50.050;21.124;2023-05-20T15:46:37;11.30;;;8.60;;
77524;SDS011;66638;50.050;21.124;2023-05-20T15:49:24;10.90;;;9.80;;
77524;SDS011;66638;50.050;21.124;2023-05-20T15:52:11;11.30;;;9.00;;
77524;SDS011;66638;50.050;21.124;2023-05-20T15:54:59;9.20;;;8.00;;
77524;SDS011;66638;50.050;21.124;2023-05-20T15:57:48;8.10;;;6.00;;
77524;SDS011;66638;50.050;21.124;2023-05-20T16:00:36;12.60;;;6.60;;
77524;SDS011;66638;50.050;21.124;2023-05-20T16:03:24;10.30;;;7.30;;
77524;SDS011;66638;50.050;21.124;2023-05-20T16:06:11;8.90;;;7.30;;
77524;SDS011;66638;50.050;21.124;2023-05-20T16:08:58;7.60;;;5.80;;
77524;SDS011;66638;50.050;21.124;2023-05-20T16:11:46;6.90;;;6.20;;
77524;SDS011;66638;50.050;21.124;2023-05-20T16:14:33;7.70;;;5.80;;
77524;SDS011;66638;50.050;21.124;2023-05-20T16:17:21;7.30;;;5.20;;
77524;SDS011;66638;50.050;21.124;2023-05-20T16:20:08;10.80;;;6.00;;